This is the latest recevied weather packets stored in our database for station/object GW1491. If no packets are shown the sender has not sent any weather packets the latest 10 day(s).
| Time | Temp. | Humidity | Pressure | Rain* | Wind** | Luminosity | Snow |
|---|---|---|---|---|---|---|---|
| 1777474460 | 17.78° C | 90% | 1009.8 hPa | 0 mm | - | - | - |
| 1777469809 | 15.56° C | 94% | 1010.4 hPa | 0 mm | - | - | - |
| 1777469074 | 15.56° C | 95% | 1010.4 hPa | 0 mm | - | - | - |
| 1777467288 | 14.44° C | 98% | 1010.4 hPa | 0 mm | - | - | - |
| 1777466905 | 14.44° C | 98% | 1010.4 hPa | 0 mm | - | - | - |
| 1777465467 | 14.44° C | 99% | 1010.4 hPa | 0 mm | - | - | - |
| 1777464764 | 14.44° C | 99% | 1010.8 hPa | 0 mm | - | - | - |
| 1777464393 | 13.89° C | 99% | 1010.8 hPa | 0 mm | - | - | - |
| 1777462580 | 13.89° C | 99% | 1010.8 hPa | 0 mm | - | - | - |
| 1777453241 | 13.89° C | 99% | 1011.1 hPa | 0 mm | - | - | - |
| 1777452889 | 13.89° C | 99% | 1011.1 hPa | 0 mm | - | - | - |
| 1777452153 | 13.89° C | 99% | 1011.5 hPa | 0 mm | - | - | - |
| 1777448568 | 14.44° C | 99% | 1011.8 hPa | 0 mm | - | - | - |
| 1777448179 | 14.44° C | 99% | 1011.8 hPa | 0 mm | - | - | - |
| 1777445669 | 14.44° C | 98% | 1012.1 hPa | 0 mm | - | - | - |
| 1777445330 | 14.44° C | 98% | 1012.1 hPa | 0 mm | - | - | - |
| 1777443878 | 15° C | 97% | 1012.5 hPa | 0 mm | - | - | - |
| 1777442072 | 15° C | 95% | 1012.8 hPa | 0 mm | - | - | - |
| 1777441332 | 15.56° C | 94% | 1013.2 hPa | 0 mm | - | - | - |
| 1777438126 | 16.67° C | 90% | 1013.5 hPa | 0 mm | - | - | - |
| 1777436667 | 16.67° C | 89% | 1013.5 hPa | 0 mm | - | - | - |
| 1777433447 | 18.33° C | 83% | 1013.8 hPa | 22.1 mm | - | - | - |
| 1777431256 | 18.89° C | 81% | 1014.2 hPa | 22.1 mm | - | - | - |
| 1777430213 | 18.89° C | 81% | 1013.8 hPa | 22.1 mm | - | - | - |
| 1777428392 | 18.89° C | 79% | 1014.2 hPa | 22.1 mm | - | - | - |
* Rain since midnight (hover to see other rain measurements)
** Current wind speed in m/s (hover to see current wind gust speed)